sensor_id;sensor_type;location;lat;lon;timestamp;P1;P2;P0
57798;PMS7003;43626;53.866;30.298;2023-01-05T00:00:00;6.4;5.6;3.4
57798;PMS7003;43626;53.866;30.298;2023-01-05T00:05:06;6.8;5;3.8
57798;PMS7003;43626;53.866;30.298;2023-01-05T00:09:44;7.2;5.8;4
57798;PMS7003;43626;53.866;30.298;2023-01-05T00:15:16;7.4;6.2;3.2
57798;PMS7003;43626;53.866;30.298;2023-01-05T00:20:12;7.4;6.2;3.2
57798;PMS7003;43626;53.866;30.298;2023-01-05T00:24:38;6.8;5;3.2
57798;PMS7003;43626;53.866;30.298;2023-01-05T00:30:06;6.2;5.4;3
57798;PMS7003;43626;53.866;30.298;2023-01-05T00:35:08;8.2;4.8;3.4
57798;PMS7003;43626;53.866;30.298;2023-01-05T00:40:14;9.4;6;3.6
57798;PMS7003;43626;53.866;30.298;2023-01-05T00:44:46;9.4;6;3.6
57798;PMS7003;43626;53.866;30.298;2023-01-05T00:50:09;8.2;5.8;3.8
57798;PMS7003;43626;53.866;30.298;2023-01-05T00:55:08;6.4;5.8;4
57798;PMS7003;43626;53.866;30.298;2023-01-05T01:00:07;9.6;8;4
57798;PMS7003;43626;53.866;30.298;2023-01-05T01:05:18;9.4;7;4
57798;PMS7003;43626;53.866;30.298;2023-01-05T01:10:08;9.4;7;4
57798;PMS7003;43626;53.866;30.298;2023-01-05T01:14:38;11.2;9.2;5
57798;PMS7003;43626;53.866;30.298;2023-01-05T01:20:06;10.6;8;5
57798;PMS7003;43626;53.866;30.298;2023-01-05T01:25:06;10;8.6;5.8
57798;PMS7003;43626;53.866;30.298;2023-01-05T01:30:18;13.8;11;5.6
57798;PMS7003;43626;53.866;30.298;2023-01-05T01:34:46;13.8;11;5.6
57798;PMS7003;43626;53.866;30.298;2023-01-05T01:40:08;12.8;10.5;6.3
57798;PMS7003;43626;53.866;30.298;2023-01-05T01:45:19;14.6;12.4;7
57798;PMS7003;43626;53.866;30.298;2023-01-05T01:49:38;14.6;12.4;7
57798;PMS7003;43626;53.866;30.298;2023-01-05T01:55:16;15;12.4;8
57798;PMS7003;43626;53.866;30.298;2023-01-05T02:00:08;15;12.4;8
57798;PMS7003;43626;53.866;30.298;2023-01-05T02:04:48;14.4;12;8
57798;PMS7003;43626;53.866;30.298;2023-01-05T02:09:56;15.4;13.8;9
57798;PMS7003;43626;53.866;30.298;2023-01-05T02:15:10;13.8;11.8;8.2
57798;PMS7003;43626;53.866;30.298;2023-01-05T02:20:28;12.6;11.4;7.6
57798;PMS7003;43626;53.866;30.298;2023-01-05T02:25:24;14;11.8;7
57798;PMS7003;43626;53.866;30.298;2023-01-05T02:35:11;17;14;9
57798;PMS7003;43626;53.866;30.298;2023-01-05T02:40:12;20.8;17.8;11.3
57798;PMS7003;43626;53.866;30.298;2023-01-05T02:45:20;23.2;18.8;11.4
57798;PMS7003;43626;53.866;30.298;2023-01-05T02:50:12;23.2;18.8;11.4
57798;PMS7003;43626;53.866;30.298;2023-01-05T02:54:39;21;17.4;11.8
57798;PMS7003;43626;53.866;30.298;2023-01-05T02:59:39;17.8;15.4;10.4
57798;PMS7003;43626;53.866;30.298;2023-01-05T03:04:47;19.2;16;10
57798;PMS7003;43626;53.866;30.298;2023-01-05T03:10:16;18.8;16.6;10.8
57798;PMS7003;43626;53.866;30.298;2023-01-05T03:14:39;18.8;16.6;10.8
57798;PMS7003;43626;53.866;30.298;2023-01-05T03:20:08;18.8;16.4;10.4
57798;PMS7003;43626;53.866;30.298;2023-01-05T03:25:10;19.6;17;11.4
57798;PMS7003;43626;53.866;30.298;2023-01-05T03:29:46;23.4;17.8;11.8
57798;PMS7003;43626;53.866;30.298;2023-01-05T03:35:18;20;18.2;11
57798;PMS7003;43626;53.866;30.298;2023-01-05T03:40:10;20;18.2;11
57798;PMS7003;43626;53.866;30.298;2023-01-05T03:44:38;20;18.5;12
57798;PMS7003;43626;53.866;30.298;2023-01-05T03:50:22;21.2;17.4;11.4
57798;PMS7003;43626;53.866;30.298;2023-01-05T03:54:58;21.2;17.4;11.4
57798;PMS7003;43626;53.866;30.298;2023-01-05T04:00:18;20.8;18.2;11.4
57798;PMS7003;43626;53.866;30.298;2023-01-05T04:04:38;20.8;18.2;11.4
57798;PMS7003;43626;53.866;30.298;2023-01-05T04:10:10;23;19.6;11.6
57798;PMS7003;43626;53.866;30.298;2023-01-05T04:15:10;25;21.6;13.4
57798;PMS7003;43626;53.866;30.298;2023-01-05T04:19:58;20.6;18;11.8
57798;PMS7003;43626;53.866;30.298;2023-01-05T04:25:22;28;24.6;15.6
57798;PMS7003;43626;53.866;30.298;2023-01-05T04:29:50;28;24.6;15.6
57798;PMS7003;43626;53.866;30.298;2023-01-05T04:34:38;23.4;19.2;12
57798;PMS7003;43626;53.866;30.298;2023-01-05T04:39:56;19.8;18.4;11.4
57798;PMS7003;43626;53.866;30.298;2023-01-05T04:44:48;28.5;23.5;15
57798;PMS7003;43626;53.866;30.298;2023-01-05T04:50:22;26.8;24;14.6
57798;PMS7003;43626;53.866;30.298;2023-01-05T04:55:00;26.8;24;14.6
57798;PMS7003;43626;53.866;30.298;2023-01-05T05:00:10;28;24.4;15.2
57798;PMS7003;43626;53.866;30.298;2023-01-05T05:05:12;19;16.8;10.6
57798;PMS7003;43626;53.866;30.298;2023-01-05T05:09:38;19;16.8;10.6
57798;PMS7003;43626;53.866;30.298;2023-01-05T05:15:18;27.8;24.6;15.2
57798;PMS7003;43626;53.866;30.298;2023-01-05T05:20:12;35;29.6;17.2
57798;PMS7003;43626;53.866;30.298;2023-01-05T05:25:00;35;29.6;17.2
57798;PMS7003;43626;53.866;30.298;2023-01-05T05:30:00;44.6;36;22.2
57798;PMS7003;43626;53.866;30.298;2023-01-05T05:34:38;39.8;33;20.8
57798;PMS7003;43626;53.866;30.298;2023-01-05T05:40:20;50;40;23.8
57798;PMS7003;43626;53.866;30.298;2023-01-05T05:44:38;50;40;23.8
57798;PMS7003;43626;53.866;30.298;2023-01-05T05:50:12;43.6;34.2;21.6
57798;PMS7003;43626;53.866;30.298;2023-01-05T05:55:00;43.6;34.2;21.6
57798;PMS7003;43626;53.866;30.298;2023-01-05T06:00:00;41.2;33.8;21.2
57798;PMS7003;43626;53.866;30.298;2023-01-05T06:05:10;38;32.2;19.4
57798;PMS7003;43626;53.866;30.298;2023-01-05T06:10:10;36;30.2;19.8
57798;PMS7003;43626;53.866;30.298;2023-01-05T06:14:58;38.4;32.6;21
57798;PMS7003;43626;53.866;30.298;2023-01-05T06:19:48;38.6;31.6;18.6
57798;PMS7003;43626;53.866;30.298;2023-01-05T06:25:24;59.4;45.8;28
57798;PMS7003;43626;53.866;30.298;2023-01-05T06:30:12;59.8;45.6;26.8
57798;PMS7003;43626;53.866;30.298;2023-01-05T06:34:38;59.8;45.6;26.8
57798;PMS7003;43626;53.866;30.298;2023-01-05T06:40:02;66.4;51.6;30.6
57798;PMS7003;43626;53.866;30.298;2023-01-05T06:44:38;81.5;62.8;34.5
57798;PMS7003;43626;53.866;30.298;2023-01-05T06:50:04;53.2;40.4;24.6
57798;PMS7003;43626;53.866;30.298;2023-01-05T06:55:12;42.6;35.2;21.8
57798;PMS7003;43626;53.866;30.298;2023-01-05T07:00:22;44.4;36.6;21.6
57798;PMS7003;43626;53.866;30.298;2023-01-05T07:05:00;44.4;36.6;21.6
57798;PMS7003;43626;53.866;30.298;2023-01-05T07:09:58;45.6;36.2;22.2
57798;PMS7003;43626;53.866;30.298;2023-01-05T07:15:02;37.2;32;19.2
57798;PMS7003;43626;53.866;30.298;2023-01-05T07:20:20;32.4;28;17.4
57798;PMS7003;43626;53.866;30.298;2023-01-05T07:24:38;32.4;28;17.4
57798;PMS7003;43626;53.866;30.298;2023-01-05T07:30:00;34;29.2;18.6
57798;PMS7003;43626;53.866;30.298;2023-01-05T07:35:10;40.2;35;23.2
57798;PMS7003;43626;53.866;30.298;2023-01-05T07:39:48;41.8;36;24.4
57798;PMS7003;43626;53.866;30.298;2023-01-05T07:45:10;44.8;36;23.4
57798;PMS7003;43626;53.866;30.298;2023-01-05T07:50:10;40.3;35;23
57798;PMS7003;43626;53.866;30.298;2023-01-05T07:55:00;36.4;30.4;19.2
57798;PMS7003;43626;53.866;30.298;2023-01-05T07:59:58;37.2;33.2;20.4
57798;PMS7003;43626;53.866;30.298;2023-01-05T08:05:12;44.4;36.6;23.6
57798;PMS7003;43626;53.866;30.298;2023-01-05T08:10:22;53.8;43;27.4
57798;PMS7003;43626;53.866;30.298;2023-01-05T08:14:38;53.8;43;27.4
57798;PMS7003;43626;53.866;30.298;2023-01-05T08:19:58;46.6;37.8;23.8
57798;PMS7003;43626;53.866;30.298;2023-01-05T08:24:58;41;34;21.8
57798;PMS7003;43626;53.866;30.298;2023-01-05T08:29:48;41;35;22.4
57798;PMS7003;43626;53.866;30.298;2023-01-05T08:35:12;43.6;34;21.4
57798;PMS7003;43626;53.866;30.298;2023-01-05T08:40:10;43.6;34;21.4
57798;PMS7003;43626;53.866;30.298;2023-01-05T08:44:58;41.8;35.4;21.4
57798;PMS7003;43626;53.866;30.298;2023-01-05T08:49:58;39.3;33;21
57798;PMS7003;43626;53.866;30.298;2023-01-05T08:55:10;43.4;34.8;21
57798;PMS7003;43626;53.866;30.298;2023-01-05T09:00:20;43.6;33.4;19.8
57798;PMS7003;43626;53.866;30.298;2023-01-05T09:05:00;43.6;33.4;19.8
57798;PMS7003;43626;53.866;30.298;2023-01-05T09:09:58;41.4;33.4;19.8
57798;PMS7003;43626;53.866;30.298;2023-01-05T09:14:56;44.4;35.4;20.2
57798;PMS7003;43626;53.866;30.298;2023-01-05T09:19:48;56.4;41;23.2
57798;PMS7003;43626;53.866;30.298;2023-01-05T09:25:10;52.6;39.4;22.2
57798;PMS7003;43626;53.866;30.298;2023-01-05T09:30:12;49.4;36;20.6
57798;PMS7003;43626;53.866;30.298;2023-01-05T09:34:58;49.4;36;20.6
57798;PMS7003;43626;53.866;30.298;2023-01-05T09:40:11;42.6;33;20
57798;PMS7003;43626;53.866;30.298;2023-01-05T09:45:22;40.8;31.8;19.3
57798;PMS7003;43626;53.866;30.298;2023-01-05T09:50:19;35.4;30.2;18
57798;PMS7003;43626;53.866;30.298;2023-01-05T09:54:38;35.4;30.2;18
57798;PMS7003;43626;53.866;30.298;2023-01-05T09:59:40;32;27.6;16.8
57798;PMS7003;43626;53.866;30.298;2023-01-05T10:05:12;33.6;30;18.2
57798;PMS7003;43626;53.866;30.298;2023-01-05T10:09:38;33.6;30;18.2
57798;PMS7003;43626;53.866;30.298;2023-01-05T10:15:20;31.6;26.4;16.2
57798;PMS7003;43626;53.866;30.298;2023-01-05T10:20:26;33;25;14.6
57798;PMS7003;43626;53.866;30.298;2023-01-05T10:24:59;33;25;14.6
57798;PMS7003;43626;53.866;30.298;2023-01-05T10:29:52;31.8;26.8;18.4
57798;PMS7003;43626;53.866;30.298;2023-01-05T10:35:04;38.2;31.6;19.6
57798;PMS7003;43626;53.866;30.298;2023-01-05T10:40:13;36.2;29.8;18
57798;PMS7003;43626;53.866;30.298;2023-01-05T10:44:42;43.8;33;20.2
57798;PMS7003;43626;53.866;30.298;2023-01-05T10:50:02;53.8;41;25
57798;PMS7003;43626;53.866;30.298;2023-01-05T10:55:15;50.6;37.6;21.2
57798;PMS7003;43626;53.866;30.298;2023-01-05T10:59:52;50.6;37.6;21.2
57798;PMS7003;43626;53.866;30.298;2023-01-05T11:05:27;42.6;34.8;21
57798;PMS7003;43626;53.866;30.298;2023-01-05T11:10:27;51.6;40.4;23.8
57798;PMS7003;43626;53.866;30.298;2023-01-05T11:15:00;51.6;40.4;23.8
57798;PMS7003;43626;53.866;30.298;2023-01-05T11:19:39;60.4;47;27.4
57798;PMS7003;43626;53.866;30.298;2023-01-05T11:25:19;38.8;32.6;20.6
57798;PMS7003;43626;53.866;30.298;2023-01-05T11:30:24;46.2;35.8;21
57798;PMS7003;43626;53.866;30.298;2023-01-05T11:35:02;46.2;35.8;21
57798;PMS7003;43626;53.866;30.298;2023-01-05T11:40:01;36.2;29.6;18.2
57798;PMS7003;43626;53.866;30.298;2023-01-05T11:45:17;39;32;19.5
57798;PMS7003;43626;53.866;30.298;2023-01-05T11:49:55;39;32;19.5
57798;PMS7003;43626;53.866;30.298;2023-01-05T11:55:28;44;34.8;22
57798;PMS7003;43626;53.866;30.298;2023-01-05T12:00:27;23;18.6;12.8
57798;PMS7003;43626;53.866;30.298;2023-01-05T12:05:01;23;18.6;12.8
57798;PMS7003;43626;53.866;30.298;2023-01-05T12:09:52;39.8;31.4;20.4
57798;PMS7003;43626;53.866;30.298;2023-01-05T12:15:23;18.4;15.6;10.4
57798;PMS7003;43626;53.866;30.298;2023-01-05T12:20:18;38.2;30.2;19.8
57798;PMS7003;43626;53.866;30.298;2023-01-05T12:24:53;38.2;30.2;19.8
57798;PMS7003;43626;53.866;30.298;2023-01-05T12:30:07;33.4;28.4;18.2
57798;PMS7003;43626;53.866;30.298;2023-01-05T12:35:20;24.8;22.8;14.6
57798;PMS7003;43626;53.866;30.298;2023-01-05T12:39:42;24.8;22.8;14.6
57798;PMS7003;43626;53.866;30.298;2023-01-05T12:45:18;20.4;18.8;12.4
57798;PMS7003;43626;53.866;30.298;2023-01-05T12:50:26;24.5;20.3;13
57798;PMS7003;43626;53.866;30.298;2023-01-05T12:55:01;24.5;20.3;13
57798;PMS7003;43626;53.866;30.298;2023-01-05T12:59:39;22.6;20.4;13.6
57798;PMS7003;43626;53.866;30.298;2023-01-05T13:05:06;27.8;24;15.8
57798;PMS7003;43626;53.866;30.298;2023-01-05T13:10:16;43.2;36;23.2
57798;PMS7003;43626;53.866;30.298;2023-01-05T13:15:03;43.2;36;23.2
57798;PMS7003;43626;53.866;30.298;2023-01-05T13:20:01;34.4;28.4;18.2
57798;PMS7003;43626;53.866;30.298;2023-01-05T13:25:17;30.8;26.8;16.8
57798;PMS7003;43626;53.866;30.298;2023-01-05T13:29:50;30.8;26.8;16.8
57798;PMS7003;43626;53.866;30.298;2023-01-05T13:35:29;37;31.8;21.6
57798;PMS7003;43626;53.866;30.298;2023-01-05T13:40:32;33.8;28.4;18.2
57798;PMS7003;43626;53.866;30.298;2023-01-05T13:45:02;33.8;28.4;18.2
57798;PMS7003;43626;53.866;30.298;2023-01-05T13:55:15;121.8;93.8;43
57798;PMS7003;43626;53.866;30.298;2023-01-05T13:59:49;121.8;93.8;43
57798;PMS7003;43626;53.866;30.298;2023-01-05T14:05:02;85.4;66.6;35.6
57798;PMS7003;43626;53.866;30.298;2023-01-05T14:10:00;282.4;217.8;98.2
57798;PMS7003;43626;53.866;30.298;2023-01-05T14:15:32;19.4;17.8;11.6
57798;PMS7003;43626;53.866;30.298;2023-01-05T14:20:41;22.2;18.8;11.2
57798;PMS7003;43626;53.866;30.298;2023-01-05T14:25:43;36.4;29.2;17.6
57798;PMS7003;43626;53.866;30.298;2023-01-05T14:30:18;23.2;21;13
57798;PMS7003;43626;53.866;30.298;2023-01-05T14:34:46;23.2;21;13
57798;PMS7003;43626;53.866;30.298;2023-01-05T14:39:40;18.2;17.4;11.2
57798;PMS7003;43626;53.866;30.298;2023-01-05T14:45:23;23.4;20.4;13
57798;PMS7003;43626;53.866;30.298;2023-01-05T14:50:31;22.3;18.3;12.8
57798;PMS7003;43626;53.866;30.298;2023-01-05T14:55:19;22.3;18.3;12.8
57798;PMS7003;43626;53.866;30.298;2023-01-05T15:00:15;26.2;22.4;14.8
57798;PMS7003;43626;53.866;30.298;2023-01-05T15:05:15;26;22.2;13
57798;PMS7003;43626;53.866;30.298;2023-01-05T15:10:25;27.6;20.8;12.4
57798;PMS7003;43626;53.866;30.298;2023-01-05T15:15:41;20.6;17.8;11.4
57798;PMS7003;43626;53.866;30.298;2023-01-05T15:20:05;20.6;17.8;11.4
57798;PMS7003;43626;53.866;30.298;2023-01-05T15:25:05;23.2;19.2;12
57798;PMS7003;43626;53.866;30.298;2023-01-05T15:30:02;22;19.4;11.6
57798;PMS7003;43626;53.866;30.298;2023-01-05T15:35:27;20.6;18;10.8
57798;PMS7003;43626;53.866;30.298;2023-01-05T15:40:25;26.2;21.4;12.8
57798;PMS7003;43626;53.866;30.298;2023-01-05T15:44:39;26.2;21.4;12.8
57798;PMS7003;43626;53.866;30.298;2023-01-05T15:50:15;21;18.4;11.2
57798;PMS7003;43626;53.866;30.298;2023-01-05T15:55:15;27.2;23.6;15
57798;PMS7003;43626;53.866;30.298;2023-01-05T16:00:25;23.6;20;13
57798;PMS7003;43626;53.866;30.298;2023-01-05T16:05:23;22.4;21;13.2
57798;PMS7003;43626;53.866;30.298;2023-01-05T16:09:38;22.4;21;13.2
57798;PMS7003;43626;53.866;30.298;2023-01-05T16:14:39;23;18.8;11.2
57798;PMS7003;43626;53.866;30.298;2023-01-05T16:19:39;23.2;18.6;12
57798;PMS7003;43626;53.866;30.298;2023-01-05T16:25:25;23.2;19.2;10.2
57798;PMS7003;43626;53.866;30.298;2023-01-05T16:30:26;20.4;18.6;10.4
57798;PMS7003;43626;53.866;30.298;2023-01-05T16:35:21;24.2;20.2;12.2
57798;PMS7003;43626;53.866;30.298;2023-01-05T16:40:17;21;18;11.4
57798;PMS7003;43626;53.866;30.298;2023-01-05T16:45:16;22.8;18.6;11.2
57798;PMS7003;43626;53.866;30.298;2023-01-05T16:50:50;22.3;17.5;10.3
57798;PMS7003;43626;53.866;30.298;2023-01-05T16:55:27;22.2;18.2;11.4
57798;PMS7003;43626;53.866;30.298;2023-01-05T17:00:03;22.2;18.2;11.4
57798;PMS7003;43626;53.866;30.298;2023-01-05T17:05:00;22.8;19.4;11.2
57798;PMS7003;43626;53.866;30.298;2023-01-05T17:09:50;19.6;18.2;11
57798;PMS7003;43626;53.866;30.298;2023-01-05T17:15:26;16.8;13.6;9.6
57798;PMS7003;43626;53.866;30.298;2023-01-05T17:20:23;19.6;15.6;10
57798;PMS7003;43626;53.866;30.298;2023-01-05T17:24:38;19.6;15.6;10
57798;PMS7003;43626;53.866;30.298;2023-01-05T17:30:14;20.2;17.2;10.6
57798;PMS7003;43626;53.866;30.298;2023-01-05T17:35:12;18.6;15.8;9.8
57798;PMS7003;43626;53.866;30.298;2023-01-05T17:40:14;18.6;15.8;9.8
57798;PMS7003;43626;53.866;30.298;2023-01-05T17:45:24;12.6;10.8;6.8
57798;PMS7003;43626;53.866;30.298;2023-01-05T17:50:00;12.6;10.8;6.8
57798;PMS7003;43626;53.866;30.298;2023-01-05T17:55:00;15;13.8;8.6
57798;PMS7003;43626;53.866;30.298;2023-01-05T17:59:38;13.8;11;6.5
57798;PMS7003;43626;53.866;30.298;2023-01-05T18:05:21;13;11.4;6.6
57798;PMS7003;43626;53.866;30.298;2023-01-05T18:10:21;16.4;13.8;8.4
57798;PMS7003;43626;53.866;30.298;2023-01-05T18:15:02;16.4;13.8;8.4
57798;PMS7003;43626;53.866;30.298;2023-01-05T18:20:03;16.2;12.6;7.2
57798;PMS7003;43626;53.866;30.298;2023-01-05T18:25:14;12.4;10.4;6.4
57798;PMS7003;43626;53.866;30.298;2023-01-05T18:30:22;9.8;8.2;5.2
57798;PMS7003;43626;53.866;30.298;2023-01-05T18:34:54;9.8;8.2;5.2
57798;PMS7003;43626;53.866;30.298;2023-01-05T18:40:03;10.2;8.8;4.4
57798;PMS7003;43626;53.866;30.298;2023-01-05T18:44:52;11.6;8.8;5.4
57798;PMS7003;43626;53.866;30.298;2023-01-05T18:49:53;11;10;6.2
57798;PMS7003;43626;53.866;30.298;2023-01-05T18:55:23;12.5;10.3;6.3
57798;PMS7003;43626;53.866;30.298;2023-01-05T19:00:00;12.5;10.3;6.3
57798;PMS7003;43626;53.866;30.298;2023-01-05T19:04:38;13.2;10.6;7.2
57798;PMS7003;43626;53.866;30.298;2023-01-05T19:09:48;12;11.6;7.2
57798;PMS7003;43626;53.866;30.298;2023-01-05T19:15:14;12.4;11.2;7.2
57798;PMS7003;43626;53.866;30.298;2023-01-05T19:20:22;14.2;11;5.8
57798;PMS7003;43626;53.866;30.298;2023-01-05T19:25:04;14.2;11;5.8
57798;PMS7003;43626;53.866;30.298;2023-01-05T19:29:38;9.8;8.4;4.8
57798;PMS7003;43626;53.866;30.298;2023-01-05T19:35:02;11;9.2;5.8
57798;PMS7003;43626;53.866;30.298;2023-01-05T19:39:52;10.4;8.2;5
57798;PMS7003;43626;53.866;30.298;2023-01-05T19:45:18;8.8;8.2;5.2
57798;PMS7003;43626;53.866;30.298;2023-01-05T19:50:20;10.8;7.8;4.8
57798;PMS7003;43626;53.866;30.298;2023-01-05T19:54:38;10.8;7.8;4.8
57798;PMS7003;43626;53.866;30.298;2023-01-05T20:00:15;10;8.8;4.6
57798;PMS7003;43626;53.866;30.298;2023-01-05T20:05:12;9;7.6;4
57798;PMS7003;43626;53.866;30.298;2023-01-05T20:10:18;8.6;7.6;4
57798;PMS7003;43626;53.866;30.298;2023-01-05T20:14:50;8.6;7.6;4
57798;PMS7003;43626;53.866;30.298;2023-01-05T20:20:01;8.2;6.8;4
57798;PMS7003;43626;53.866;30.298;2023-01-05T20:25:03;8.8;7.4;3.8
57798;PMS7003;43626;53.866;30.298;2023-01-05T20:29:46;8.2;6.2;3.6
57798;PMS7003;43626;53.866;30.298;2023-01-05T20:35:21;7.8;6.6;3.2
57798;PMS7003;43626;53.866;30.298;2023-01-05T20:40:01;7.8;6.6;3.2
57798;PMS7003;43626;53.866;30.298;2023-01-05T20:45:03;9.2;6.2;3.8
57798;PMS7003;43626;53.866;30.298;2023-01-05T20:50:04;6.2;6;2.8
57798;PMS7003;43626;53.866;30.298;2023-01-05T20:55:12;7.8;6;3
57798;PMS7003;43626;53.866;30.298;2023-01-05T21:00:20;6.8;5.4;3
57798;PMS7003;43626;53.866;30.298;2023-01-05T21:05:03;6.8;5.4;3
57798;PMS7003;43626;53.866;30.298;2023-01-05T21:09:51;7.8;7.2;3.4
57798;PMS7003;43626;53.866;30.298;2023-01-05T21:15:03;8;6.8;3.3
57798;PMS7003;43626;53.866;30.298;2023-01-05T21:19:38;8.2;7.2;4
57798;PMS7003;43626;53.866;30.298;2023-01-05T21:25:24;9;7;4.2
57798;PMS7003;43626;53.866;30.298;2023-01-05T21:30:03;9;7;4.2
57798;PMS7003;43626;53.866;30.298;2023-01-05T21:34:54;6.8;4.8;3
57798;PMS7003;43626;53.866;30.298;2023-01-05T21:40:14;9.4;8;4.4
57798;PMS7003;43626;53.866;30.298;2023-01-05T21:45:15;10.2;8.2;5.8
57798;PMS7003;43626;53.866;30.298;2023-01-05T21:50:25;10.2;8.2;4.8
57798;PMS7003;43626;53.866;30.298;2023-01-05T21:54:38;10.2;8.2;4.8
57798;PMS7003;43626;53.866;30.298;2023-01-05T22:00:03;8.8;7.4;3.8
57798;PMS7003;43626;53.866;30.298;2023-01-05T22:05:03;11.2;9.4;5.4
57798;PMS7003;43626;53.866;30.298;2023-01-05T22:09:38;11.4;9.6;6
57798;PMS7003;43626;53.866;30.298;2023-01-05T22:15:20;6.2;6.2;3.6
57798;PMS7003;43626;53.866;30.298;2023-01-05T22:20:00;6.2;6.2;3.6
57798;PMS7003;43626;53.866;30.298;2023-01-05T22:24:38;10.6;7.4;3.4
57798;PMS7003;43626;53.866;30.298;2023-01-05T22:30:00;8.6;6.8;3.8
57798;PMS7003;43626;53.866;30.298;2023-01-05T22:34:56;9.4;7.4;3.8
57798;PMS7003;43626;53.866;30.298;2023-01-05T22:40:21;9.2;6.4;3.8
57798;PMS7003;43626;53.866;30.298;2023-01-05T22:44:38;9.2;6.4;3.8
57798;PMS7003;43626;53.866;30.298;2023-01-05T22:50:24;9;6.2;3.2
57798;PMS7003;43626;53.866;30.298;2023-01-05T22:55:10;9;6.2;3.2
57798;PMS7003;43626;53.866;30.298;2023-01-05T22:59:38;7.8;7;3.6
57798;PMS7003;43626;53.866;30.298;2023-01-05T23:05:00;7.6;6;3.6
57798;PMS7003;43626;53.866;30.298;2023-01-05T23:10:10;9.8;7.6;4.2
57798;PMS7003;43626;53.866;30.298;2023-01-05T23:15:18;7.3;5.8;2.8
57798;PMS7003;43626;53.866;30.298;2023-01-05T23:20:20;7;5.4;3
57798;PMS7003;43626;53.866;30.298;2023-01-05T23:25:09;7;5.4;3
57798;PMS7003;43626;53.866;30.298;2023-01-05T23:30:11;6.2;5.8;3.4
57798;PMS7003;43626;53.866;30.298;2023-01-05T23:34:38;4.2;3;1.4
57798;PMS7003;43626;53.866;30.298;2023-01-05T23:40:18;4.8;3.6;2.2
57798;PMS7003;43626;53.866;30.298;2023-01-05T23:45:18;5.8;3.8;2.6
57798;PMS7003;43626;53.866;30.298;2023-01-05T23:49:48;5.8;3.8;2.6
57798;PMS7003;43626;53.866;30.298;2023-01-05T23:55:01;5.2;4.8;2.6
57798;PMS7003;43626;53.866;30.298;2023-01-05T23:59:48;5.6;4;2.2
